Time;durP1;ratioP1;P1;durP2;ratioP2;P2;SDS_P1;SDS_P2;PMS_P1;PMS_P2;Temp;Humidity;BMP_temperature;BMP_pressure;BME280_temperature;BME280_humidity;BME280_pressure;Samples;Min_cycle;Max_cycle;Signal;HPM_P1;HPM_P2
2022/12/10 00:01:06;;;;;;;;;;;18.60;36.80;;;;;;5034020;28;19920;-65
2022/12/10 00:03:32;;;;;;;;;;;18.60;37.00;;;;;;5033937;28;19943;-67
2022/12/10 00:06:00;;;;;;;;;;;18.60;37.20;;;;;;5050821;28;20325;-65
2022/12/10 00:08:27;;;;;;;;;;;18.60;37.30;;;;;;5029076;28;19932;-67
2022/12/10 00:10:54;;;;;;;;;;;18.60;37.40;;;;;;5034001;28;19921;-66
2022/12/10 00:13:20;;;;;;;;;;;18.60;37.50;;;;;;5052038;28;19978;-63
2022/12/10 00:15:48;;;;;;;;;;;18.70;37.70;;;;;;5032147;28;20051;-63
2022/12/10 00:18:15;;;;;;;;;;;18.70;37.80;;;;;;5032769;28;19924;-64
2022/12/10 00:20:42;;;;;;;;;;;18.70;37.90;;;;;;5052067;28;19987;-65
2022/12/10 00:23:09;;;;;;;;;;;18.70;38.00;;;;;;5032952;28;19968;-64
2022/12/10 00:25:35;;;;;;;;;;;18.70;38.00;;;;;;5033879;28;19928;-64
2022/12/10 00:28:02;;;;;;;;;;;18.70;38.00;;;;;;5049590;28;19928;-64
2022/12/10 00:30:29;;;;;;;;;;;18.70;38.30;;;;;;5051693;28;19928;-65
2022/12/10 00:32:57;;;;;;;;;;;18.70;38.20;;;;;;5033654;28;20005;-64
2022/12/10 00:35:24;;;;;;;;;;;18.70;38.20;;;;;;5048880;28;19920;-64
2022/12/10 00:37:50;;;;;;;;;;;18.80;38.30;;;;;;5048845;28;19982;-65
2022/12/10 00:40:17;;;;;;;;;;;18.80;38.30;;;;;;5032639;28;19925;-65
2022/12/10 00:42:44;;;;;;;;;;;18.80;38.40;;;;;;5032640;28;19927;-65
2022/12/10 00:45:11;;;;;;;;;;;18.80;38.40;;;;;;5050522;28;19925;-63
2022/12/10 00:47:37;;;;;;;;;;;18.80;38.50;;;;;;5029972;28;19928;-64
2022/12/10 00:50:07;;;;;;;;;;;18.80;38.50;;;;;;5028593;28;20394;-65
2022/12/10 00:52:33;;;;;;;;;;;18.80;38.50;;;;;;5050092;28;19974;-68
2022/12/10 00:55:00;;;;;;;;;;;18.80;38.60;;;;;;5051536;28;19921;-66
2022/12/10 00:57:27;;;;;;;;;;;18.80;38.60;;;;;;5030879;28;20268;-65
2022/12/10 00:59:54;;;;;;;;;;;18.80;38.60;;;;;;5033259;28;20282;-63
2022/12/10 01:02:20;;;;;;;;;;;18.80;38.60;;;;;;5032555;28;19929;-64
2022/12/10 01:04:47;;;;;;;;;;;18.80;38.70;;;;;;5033482;28;19992;-65
2022/12/10 01:07:15;;;;;;;;;;;18.80;38.70;;;;;;5050045;28;19928;-64
2022/12/10 01:09:42;;;;;;;;;;;18.80;38.70;;;;;;5032828;28;20476;-64
2022/12/10 01:12:09;;;;;;;;;;;18.80;38.70;;;;;;5032758;28;19932;-66
2022/12/10 01:14:36;;;;;;;;;;;18.80;38.80;;;;;;5031825;28;19928;-65
2022/12/10 01:17:03;;;;;;;;;;;18.80;38.80;;;;;;5048394;28;20325;-64
2022/12/10 01:19:30;;;;;;;;;;;18.80;38.80;;;;;;5031373;28;19962;-65
2022/12/10 01:21:57;;;;;;;;;;;18.80;38.80;;;;;;5033146;28;19925;-65
2022/12/10 01:24:25;;;;;;;;;;;18.80;38.80;;;;;;5049664;28;19920;-65
2022/12/10 01:26:52;;;;;;;;;;;18.80;38.90;;;;;;5050976;28;19944;-63
2022/12/10 01:29:19;;;;;;;;;;;18.80;38.90;;;;;;5049584;28;19927;-64
2022/12/10 01:31:47;;;;;;;;;;;18.80;38.90;;;;;;5032112;28;19939;-65
2022/12/10 01:34:16;;;;;;;;;;;18.80;38.90;;;;;;5050289;28;19920;-65
2022/12/10 01:36:43;;;;;;;;;;;18.80;38.90;;;;;;5032112;28;20388;-64
2022/12/10 01:39:10;;;;;;;;;;;18.80;38.90;;;;;;5049274;28;20321;-66
2022/12/10 01:41:40;;;;;;;;;;;18.80;38.90;;;;;;5032506;28;20341;-65
2022/12/10 01:44:21;;;;;;;;;;;18.80;39.00;;;;;;5030139;28;19967;-64
2022/12/10 01:46:48;;;;;;;;;;;18.80;39.00;;;;;;5031039;28;19928;-65
2022/12/10 01:49:16;;;;;;;;;;;18.80;39.00;;;;;;5028616;28;19920;-65
2022/12/10 01:51:44;;;;;;;;;;;18.80;39.00;;;;;;5031418;28;19933;-65
2022/12/10 01:54:11;;;;;;;;;;;18.80;39.00;;;;;;5031671;28;19921;-63
2022/12/10 01:56:39;;;;;;;;;;;18.80;39.00;;;;;;5048746;28;19928;-65
2022/12/10 01:59:06;;;;;;;;;;;18.80;39.00;;;;;;5030792;28;19970;-66
2022/12/10 02:01:33;;;;;;;;;;;18.80;39.00;;;;;;5032331;28;19924;-66
2022/12/10 02:04:04;;;;;;;;;;;18.80;39.00;;;;;;5048585;28;19921;-65
2022/12/10 02:06:38;;;;;;;;;;;18.80;39.00;;;;;;5030165;28;19921;-65
2022/12/10 02:09:06;;;;;;;;;;;18.80;39.00;;;;;;5031028;28;19924;-64
2022/12/10 02:11:34;;;;;;;;;;;18.80;39.00;;;;;;5032234;28;19932;-65
2022/12/10 02:14:03;;;;;;;;;;;18.80;39.00;;;;;;5030561;28;19932;-67
2022/12/10 02:16:31;;;;;;;;;;;18.80;39.00;;;;;;5032340;28;20452;-64
2022/12/10 02:18:59;;;;;;;;;;;18.80;39.00;;;;;;5031963;28;19920;-64
2022/12/10 02:21:27;;;;;;;;;;;18.80;39.00;;;;;;5031589;28;19925;-65
2022/12/10 02:23:55;;;;;;;;;;;18.80;39.00;;;;;;5031879;28;19925;-65
2022/12/10 02:26:23;;;;;;;;;;;18.80;39.00;;;;;;5029780;28;20003;-64
2022/12/10 02:28:51;;;;;;;;;;;18.80;39.00;;;;;;5031790;28;19920;-64
2022/12/10 02:31:19;;;;;;;;;;;18.80;39.00;;;;;;5031722;28;19986;-65
2022/12/10 02:33:46;;;;;;;;;;;18.80;39.00;;;;;;5029231;28;19925;-64
2022/12/10 02:36:13;;;;;;;;;;;18.80;39.00;;;;;;5030670;28;19920;-64
2022/12/10 02:38:40;;;;;;;;;;;18.80;39.00;;;;;;5030271;28;19925;-64
2022/12/10 02:41:08;;;;;;;;;;;18.80;39.00;;;;;;5028947;28;19943;-65
2022/12/10 02:43:34;;;;;;;;;;;18.80;38.90;;;;;;5031426;28;19928;-64
2022/12/10 02:46:02;;;;;;;;;;;18.80;39.00;;;;;;5049502;28;19998;-65
2022/12/10 02:48:30;;;;;;;;;;;18.80;39.00;;;;;;5030228;28;20441;-64
2022/12/10 02:50:57;;;;;;;;;;;18.80;39.00;;;;;;5030699;28;19920;-65
2022/12/10 02:53:24;;;;;;;;;;;18.80;39.00;;;;;;5029922;28;20039;-64
2022/12/10 02:55:55;;;;;;;;;;;18.80;39.00;;;;;;5029072;28;20271;-65
2022/12/10 02:58:24;;;;;;;;;;;18.80;39.00;;;;;;5013602;28;20295;-64
2022/12/10 03:00:52;;;;;;;;;;;18.80;38.90;;;;;;5031244;28;19925;-65
2022/12/10 03:03:25;;;;;;;;;;;18.80;39.00;;;;;;5049218;28;19928;-64
2022/12/10 03:05:54;;;;;;;;;;;18.80;38.90;;;;;;5047089;28;19928;-64
2022/12/10 03:08:22;;;;;;;;;;;18.80;38.90;;;;;;5030508;28;19921;-64
2022/12/10 03:10:50;;;;;;;;;;;18.80;38.90;;;;;;5031024;28;20371;-64
2022/12/10 03:13:17;;;;;;;;;;;18.80;38.90;;;;;;5029344;28;19921;-64
2022/12/10 03:15:44;;;;;;;;;;;18.80;38.90;;;;;;5030656;28;19956;-68
2022/12/10 03:18:11;;;;;;;;;;;18.80;38.90;;;;;;5030303;28;19929;-65
2022/12/10 03:20:38;;;;;;;;;;;18.80;38.90;;;;;;5029855;28;19924;-65
2022/12/10 03:23:08;;;;;;;;;;;18.80;39.00;;;;;;5028691;28;19951;-65
2022/12/10 03:25:34;;;;;;;;;;;18.80;38.90;;;;;;5030579;28;19925;-66
2022/12/10 03:28:01;;;;;;;;;;;18.80;38.90;;;;;;5047569;28;19928;-66
2022/12/10 03:30:28;;;;;;;;;;;18.80;39.00;;;;;;5030987;28;19921;-65
2022/12/10 03:32:55;;;;;;;;;;;18.80;38.90;;;;;;5031198;28;19951;-67
2022/12/10 03:35:22;;;;;;;;;;;18.80;38.90;;;;;;5030986;28;19921;-64
2022/12/10 03:37:49;;;;;;;;;;;18.80;38.90;;;;;;5030159;28;19936;-65
2022/12/10 03:40:18;;;;;;;;;;;18.80;38.90;;;;;;5030579;28;19921;-65
2022/12/10 03:42:45;;;;;;;;;;;18.80;39.00;;;;;;5027417;28;20367;-65
2022/12/10 03:45:12;;;;;;;;;;;18.80;38.90;;;;;;5030391;28;19921;-67
2022/12/10 03:47:39;;;;;;;;;;;18.80;38.90;;;;;;5029571;28;19924;-66
2022/12/10 03:50:06;;;;;;;;;;;18.80;38.90;;;;;;5028403;28;19940;-64
2022/12/10 03:52:33;;;;;;;;;;;18.80;38.90;;;;;;5030585;28;19932;-65
2022/12/10 03:55:00;;;;;;;;;;;18.80;38.90;;;;;;5048680;28;19936;-66
2022/12/10 03:57:28;;;;;;;;;;;18.80;38.90;;;;;;5048096;28;19921;-64
2022/12/10 03:59:55;;;;;;;;;;;18.80;38.90;;;;;;5044989;28;19982;-65
2022/12/10 04:02:22;;;;;;;;;;;18.80;38.90;;;;;;5030638;28;19951;-65
2022/12/10 04:04:49;;;;;;;;;;;18.80;38.90;;;;;;5026924;28;19932;-64
2022/12/10 04:07:16;;;;;;;;;;;18.80;38.90;;;;;;5047697;28;20341;-63
2022/12/10 04:09:43;;;;;;;;;;;18.90;39.00;;;;;;5030506;28;19974;-65
2022/12/10 04:12:09;;;;;;;;;;;18.80;38.90;;;;;;5027776;28;19960;-65
2022/12/10 04:17:22;;;;;;;;;;;18.80;38.90;;;;;;5028418;28;20240;-65
2022/12/10 04:19:48;;;;;;;;;;;18.80;38.90;;;;;;5030444;28;19936;-65
2022/12/10 04:27:44;;;;;;;;;;;18.80;38.90;;;;;;5029417;28;20389;-65
2022/12/10 04:30:12;;;;;;;;;;;18.80;38.90;;;;;;5027662;28;19924;-64
2022/12/10 04:32:39;;;;;;;;;;;18.80;38.90;;;;;;5046614;28;20023;-67
2022/12/10 04:35:06;;;;;;;;;;;18.80;38.80;;;;;;5029835;28;20287;-64
2022/12/10 04:37:33;;;;;;;;;;;18.80;38.80;;;;;;5050597;28;19928;-66
2022/12/10 04:40:00;;;;;;;;;;;18.80;38.80;;;;;;5031895;28;20360;-64
2022/12/10 04:42:26;;;;;;;;;;;18.80;38.80;;;;;;5033486;28;19978;-64
2022/12/10 04:44:53;;;;;;;;;;;18.80;38.80;;;;;;5031949;28;19932;-65
2022/12/10 04:47:22;;;;;;;;;;;18.80;38.80;;;;;;5033785;28;20441;-66
2022/12/10 04:49:48;;;;;;;;;;;18.80;38.80;;;;;;5032390;28;20367;-65
2022/12/10 04:52:15;;;;;;;;;;;18.80;38.80;;;;;;5033191;28;19978;-64
2022/12/10 04:54:42;;;;;;;;;;;18.80;38.80;;;;;;5030552;28;19924;-65
2022/12/10 04:57:09;;;;;;;;;;;18.80;38.80;;;;;;5032690;28;19974;-65
2022/12/10 04:59:36;;;;;;;;;;;18.80;38.80;;;;;;5032738;28;19928;-64
2022/12/10 05:02:02;;;;;;;;;;;18.80;38.80;;;;;;5034117;28;19925;-64
2022/12/10 05:04:30;;;;;;;;;;;18.80;38.80;;;;;;5031828;28;19986;-65
2022/12/10 05:06:57;;;;;;;;;;;18.80;38.80;;;;;;5032012;28;19920;-65
2022/12/10 05:09:24;;;;;;;;;;;18.80;38.70;;;;;;5032773;28;19921;-65
2022/12/10 05:11:51;;;;;;;;;;;18.80;38.70;;;;;;5031492;28;19921;-65
2022/12/10 05:14:17;;;;;;;;;;;18.80;38.70;;;;;;5033089;28;19920;-66
2022/12/10 05:16:44;;;;;;;;;;;18.80;38.70;;;;;;5050391;28;19996;-65
2022/12/10 05:19:11;;;;;;;;;;;18.80;38.70;;;;;;5029785;28;20218;-63
2022/12/10 05:24:23;;;;;;;;;;;18.80;38.70;;;;;;5029753;28;19952;-65
2022/12/10 05:26:51;;;;;;;;;;;18.80;38.70;;;;;;5029017;28;19933;-65
2022/12/10 05:29:18;;;;;;;;;;;18.80;38.70;;;;;;5032472;28;19921;-65
2022/12/10 05:31:44;;;;;;;;;;;18.80;38.70;;;;;;5031980;28;20031;-65
2022/12/10 05:34:11;;;;;;;;;;;18.80;38.70;;;;;;5030048;28;19931;-65
2022/12/10 05:36:39;;;;;;;;;;;18.80;38.70;;;;;;5050902;28;19921;-65
2022/12/10 05:39:06;;;;;;;;;;;18.80;38.70;;;;;;5032014;28;19933;-67
2022/12/10 05:41:34;;;;;;;;;;;18.80;38.70;;;;;;5030580;28;19925;-64
2022/12/10 05:44:01;;;;;;;;;;;18.80;39.00;;;;;;5029264;28;19925;-66
2022/12/10 05:46:29;;;;;;;;;;;18.80;38.70;;;;;;5032155;28;19921;-65
2022/12/10 05:48:56;;;;;;;;;;;18.80;38.60;;;;;;5032015;28;19921;-64
2022/12/10 05:51:23;;;;;;;;;;;18.80;38.70;;;;;;5032632;28;19920;-66
2022/12/10 05:53:52;;;;;;;;;;;18.80;38.70;;;;;;5030950;28;20378;-65
2022/12/10 05:56:19;;;;;;;;;;;18.80;38.60;;;;;;5032694;28;20248;-65
2022/12/10 05:58:46;;;;;;;;;;;18.80;38.60;;;;;;5029767;28;19927;-64
2022/12/10 06:01:14;;;;;;;;;;;18.80;38.60;;;;;;5031358;28;19974;-65
2022/12/10 06:03:40;;;;;;;;;;;18.80;38.60;;;;;;5030878;28;19947;-64
2022/12/10 06:06:07;;;;;;;;;;;18.80;38.60;;;;;;5030365;28;20785;-65
2022/12/10 06:08:34;;;;;;;;;;;18.80;38.60;;;;;;5030636;28;19921;-67
2022/12/10 06:11:02;;;;;;;;;;;18.80;38.60;;;;;;5031950;28;19974;-65
2022/12/10 06:13:29;;;;;;;;;;;18.80;38.60;;;;;;5027148;28;19920;-65
2022/12/10 06:15:56;;;;;;;;;;;18.80;38.60;;;;;;5049620;28;19932;-66
2022/12/10 06:18:23;;;;;;;;;;;18.80;38.60;;;;;;5031984;28;20079;-64
2022/12/10 06:20:50;;;;;;;;;;;18.80;38.60;;;;;;5031265;28;19921;-63
2022/12/10 06:23:17;;;;;;;;;;;18.80;38.60;;;;;;5046513;28;20306;-64
2022/12/10 06:25:43;;;;;;;;;;;18.80;38.60;;;;;;5031726;28;19927;-64
2022/12/10 06:28:12;;;;;;;;;;;18.80;38.60;;;;;;5031732;28;20020;-65
2022/12/10 06:30:38;;;;;;;;;;;18.80;38.60;;;;;;5047325;28;19921;-64
2022/12/10 06:33:05;;;;;;;;;;;18.80;38.50;;;;;;5031087;28;19982;-64
2022/12/10 06:35:32;;;;;;;;;;;18.80;38.50;;;;;;5048682;28;19998;-65
2022/12/10 06:37:59;;;;;;;;;;;18.80;38.50;;;;;;5048374;28;19928;-65
2022/12/10 06:40:25;;;;;;;;;;;18.80;38.50;;;;;;5029790;28;19921;-64
2022/12/10 06:42:52;;;;;;;;;;;18.80;38.50;;;;;;5031174;28;19921;-66
2022/12/10 06:45:20;;;;;;;;;;;18.80;38.50;;;;;;5031037;28;19921;-64
2022/12/10 06:47:47;;;;;;;;;;;18.80;38.50;;;;;;5048087;28;19928;-65
2022/12/10 06:50:14;;;;;;;;;;;18.80;38.50;;;;;;5031285;28;19920;-64
2022/12/10 06:52:40;;;;;;;;;;;18.80;38.50;;;;;;5030349;28;19933;-64
2022/12/10 06:55:07;;;;;;;;;;;18.80;38.50;;;;;;5049222;28;19974;-64
2022/12/10 06:57:34;;;;;;;;;;;18.80;38.40;;;;;;5048840;28;19925;-64
2022/12/10 07:00:01;;;;;;;;;;;18.80;38.50;;;;;;5029843;28;19960;-66
2022/12/10 07:02:29;;;;;;;;;;;18.80;38.40;;;;;;5029967;28;19925;-66
2022/12/10 07:04:56;;;;;;;;;;;18.80;38.40;;;;;;5025281;28;20649;-64
2022/12/10 07:07:23;;;;;;;;;;;18.80;38.40;;;;;;5030329;28;19943;-64
2022/12/10 07:09:50;;;;;;;;;;;18.80;38.40;;;;;;5048508;28;19990;-63
2022/12/10 07:12:17;;;;;;;;;;;18.80;38.40;;;;;;5048133;28;19921;-65
2022/12/10 07:14:43;;;;;;;;;;;18.80;38.40;;;;;;5030578;28;19928;-64
2022/12/10 07:17:10;;;;;;;;;;;18.80;38.40;;;;;;5030887;28;19921;-65
2022/12/10 07:19:39;;;;;;;;;;;18.80;38.40;;;;;;5030513;28;19970;-65
2022/12/10 07:22:06;;;;;;;;;;;18.80;38.40;;;;;;5026520;28;19921;-65
2022/12/10 07:24:32;;;;;;;;;;;18.80;38.40;;;;;;5028920;28;19927;-64
2022/12/10 07:26:59;;;;;;;;;;;18.80;38.40;;;;;;5048451;28;20294;-66
2022/12/10 07:29:27;;;;;;;;;;;18.80;38.40;;;;;;5029367;28;19924;-65
2022/12/10 07:31:54;;;;;;;;;;;18.80;38.40;;;;;;5027349;28;19972;-65
2022/12/10 07:34:21;;;;;;;;;;;18.80;38.40;;;;;;5028554;28;19960;-63
2022/12/10 07:36:49;;;;;;;;;;;18.80;38.40;;;;;;5029633;28;20307;-64
2022/12/10 07:39:17;;;;;;;;;;;18.80;38.40;;;;;;5029375;28;19968;-65
2022/12/10 07:41:45;;;;;;;;;;;18.80;38.40;;;;;;5028865;28;19925;-64
2022/12/10 07:44:12;;;;;;;;;;;18.80;38.40;;;;;;5027847;28;20023;-63
2022/12/10 07:46:39;;;;;;;;;;;18.80;38.40;;;;;;5027532;28;20337;-66
2022/12/10 07:49:08;;;;;;;;;;;18.80;38.40;;;;;;5030289;28;19920;-66
2022/12/10 07:51:36;;;;;;;;;;;18.80;38.40;;;;;;5029552;28;19921;-63
2022/12/10 07:54:04;;;;;;;;;;;18.80;38.30;;;;;;5026578;28;19921;-63
2022/12/10 07:56:31;;;;;;;;;;;18.80;38.30;;;;;;5030497;28;19940;-64
2022/12/10 07:58:58;;;;;;;;;;;18.80;38.30;;;;;;5029482;28;20025;-64
2022/12/10 08:01:25;;;;;;;;;;;18.80;38.30;;;;;;5029093;28;19921;-66
2022/12/10 08:03:52;;;;;;;;;;;18.80;38.30;;;;;;5029587;28;19932;-65
2022/12/10 08:06:19;;;;;;;;;;;18.80;38.30;;;;;;5030378;28;19991;-63
2022/12/10 08:08:46;;;;;;;;;;;18.80;38.30;;;;;;5029708;28;19929;-66
2022/12/10 08:11:15;;;;;;;;;;;18.80;38.30;;;;;;5030970;28;19928;-63
2022/12/10 08:13:41;;;;;;;;;;;18.80;38.30;;;;;;5031588;28;19921;-65
2022/12/10 08:16:09;;;;;;;;;;;18.80;38.30;;;;;;5033839;28;20432;-64
2022/12/10 08:18:35;;;;;;;;;;;18.80;38.30;;;;;;5033677;28;19921;-64
2022/12/10 08:21:04;;;;;;;;;;;18.80;38.30;;;;;;5033865;28;20366;-66
2022/12/10 08:23:31;;;;;;;;;;;18.80;38.30;;;;;;5047745;28;20018;-64
2022/12/10 08:25:57;;;;;;;;;;;18.80;38.30;;;;;;5050626;28;19975;-64
2022/12/10 08:28:25;;;;;;;;;;;18.80;38.30;;;;;;5033084;28;19921;-68
2022/12/10 08:30:53;;;;;;;;;;;18.80;38.30;;;;;;5033725;28;19978;-64
2022/12/10 08:33:20;;;;;;;;;;;18.80;38.30;;;;;;5032600;28;19932;-67
2022/12/10 08:35:46;;;;;;;;;;;18.80;38.30;;;;;;5049078;28;20275;-64
2022/12/10 08:38:13;;;;;;;;;;;18.80;38.30;;;;;;5049044;28;20417;-65
2022/12/10 08:40:40;;;;;;;;;;;18.80;38.20;;;;;;5031970;28;19921;-65
2022/12/10 08:43:07;;;;;;;;;;;18.80;38.30;;;;;;5029823;28;19932;-64
2022/12/10 08:45:35;;;;;;;;;;;18.80;38.30;;;;;;5050760;28;19920;-64
2022/12/10 08:48:02;;;;;;;;;;;18.80;38.20;;;;;;5033195;28;19960;-64
2022/12/10 08:50:29;;;;;;;;;;;18.80;38.20;;;;;;5032247;28;19921;-65
2022/12/10 08:52:56;;;;;;;;;;;18.70;38.10;;;;;;5031088;28;20358;-64
2022/12/10 08:55:23;;;;;;;;;;;18.70;38.10;;;;;;5032026;28;20368;-63
2022/12/10 08:57:49;;;;;;;;;;;18.80;38.20;;;;;;5048637;28;19975;-66
2022/12/10 09:00:16;;;;;;;;;;;18.80;38.20;;;;;;5028245;28;19932;-64
2022/12/10 09:02:44;;;;;;;;;;;18.80;38.30;;;;;;5047745;28;20011;-65
2022/12/10 09:05:11;;;;;;;;;;;18.80;38.20;;;;;;5033452;28;19925;-64
2022/12/10 09:07:38;;;;;;;;;;;18.80;38.30;;;;;;5035960;28;20019;-64
2022/12/10 09:10:06;;;;;;;;;;;18.80;38.30;;;;;;5016968;28;19921;-64
2022/12/10 09:12:35;;;;;;;;;;;18.70;38.20;;;;;;5049572;28;19939;-67
2022/12/10 09:15:01;;;;;;;;;;;18.70;38.20;;;;;;5049623;28;19970;-64
2022/12/10 09:17:28;;;;;;;;;;;18.80;38.30;;;;;;5034691;28;19983;-65
2022/12/10 09:19:56;;;;;;;;;;;18.80;38.30;;;;;;5034000;28;19925;-64
2022/12/10 09:22:26;;;;;;;;;;;18.80;38.30;;;;;;5030124;28;19979;-64
2022/12/10 09:24:52;;;;;;;;;;;18.80;38.30;;;;;;5032181;28;19936;-65
2022/12/10 09:27:20;;;;;;;;;;;18.80;38.30;;;;;;5034420;28;19920;-64
2022/12/10 09:29:47;;;;;;;;;;;18.80;38.30;;;;;;5034281;28;19927;-64
2022/12/10 09:32:13;;;;;;;;;;;18.80;38.30;;;;;;5031228;28;19960;-64
2022/12/10 09:34:40;;;;;;;;;;;18.80;38.40;;;;;;5031303;28;19921;-63
2022/12/10 09:37:08;;;;;;;;;;;18.80;38.40;;;;;;5050659;28;19943;-64
2022/12/10 09:39:35;;;;;;;;;;;18.80;38.40;;;;;;5031281;28;19975;-64
2022/12/10 09:42:14;;;;;;;;;;;18.80;38.40;;;;;;5033129;28;19927;-64
2022/12/10 09:44:43;;;;;;;;;;;18.80;38.40;;;;;;5029795;28;19929;-64
2022/12/10 09:47:10;;;;;;;;;;;18.80;38.50;;;;;;5033918;28;19959;-64
2022/12/10 09:49:43;;;;;;;;;;;18.80;38.40;;;;;;5031712;28;19974;-64
2022/12/10 09:52:12;;;;;;;;;;;18.80;38.50;;;;;;5032351;28;20274;-63
2022/12/10 09:54:41;;;;;;;;;;;18.80;38.40;;;;;;5033716;28;19924;-64
2022/12/10 09:57:07;;;;;;;;;;;18.80;38.50;;;;;;5033782;28;19920;-66
2022/12/10 09:59:36;;;;;;;;;;;18.80;38.50;;;;;;5033829;28;19920;-64
2022/12/10 10:02:19;;;;;;;;;;;18.80;38.50;;;;;;5033542;28;19921;-64
2022/12/10 10:04:46;;;;;;;;;;;18.80;38.50;;;;;;5032292;28;19974;-64
2022/12/10 10:07:15;;;;;;;;;;;18.80;38.50;;;;;;5031189;28;19924;-63
2022/12/10 10:09:42;;;;;;;;;;;18.80;38.60;;;;;;5032415;28;20016;-63
2022/12/10 10:12:11;;;;;;;;;;;18.80;38.60;;;;;;5024482;28;19991;-64
2022/12/10 10:14:37;;;;;;;;;;;18.80;38.60;;;;;;5029722;28;19921;-67
2022/12/10 10:17:04;;;;;;;;;;;18.80;38.40;;;;;;5049118;28;19920;-64
2022/12/10 10:19:32;;;;;;;;;;;18.80;37.90;;;;;;5030847;28;19972;-64
2022/12/10 10:22:02;;;;;;;;;;;18.80;37.80;;;;;;5026459;28;19925;-64
2022/12/10 10:24:34;;;;;;;;;;;18.80;37.80;;;;;;5031009;28;19925;-64
2022/12/10 10:27:02;;;;;;;;;;;18.80;37.80;;;;;;5031760;28;19931;-64
2022/12/10 10:29:29;;;;;;;;;;;18.80;37.80;;;;;;5029667;28;19944;-63
2022/12/10 10:32:10;;;;;;;;;;;18.80;37.90;;;;;;5032022;28;19925;-64
2022/12/10 10:34:37;;;;;;;;;;;18.80;38.00;;;;;;5029414;28;19925;-63
2022/12/10 10:37:04;;;;;;;;;;;18.80;38.00;;;;;;5028448;28;20288;-65
2022/12/10 10:39:34;;;;;;;;;;;18.80;38.10;;;;;;5027021;28;19932;-64
2022/12/10 10:42:01;;;;;;;;;;;18.80;38.10;;;;;;5025565;28;20031;-64
2022/12/10 10:44:28;;;;;;;;;;;18.80;38.20;;;;;;5030292;28;19928;-65
2022/12/10 10:46:55;;;;;;;;;;;18.80;38.20;;;;;;5031241;28;19983;-64
2022/12/10 10:49:23;;;;;;;;;;;18.80;38.20;;;;;;5047046;28;19929;-66
2022/12/10 10:51:50;;;;;;;;;;;18.80;38.20;;;;;;5028707;28;19924;-64
2022/12/10 10:54:32;;;;;;;;;;;18.80;38.30;;;;;;5028240;28;19921;-64
2022/12/10 10:57:00;;;;;;;;;;;18.80;38.30;;;;;;5028730;28;19925;-65
2022/12/10 10:59:30;;;;;;;;;;;18.80;38.50;;;;;;5050455;28;19921;-64
2022/12/10 11:01:58;;;;;;;;;;;18.80;38.30;;;;;;5024282;28;19939;-64
2022/12/10 11:04:47;;;;;;;;;;;18.80;38.40;;;;;;5112874;27;19912;-65
2022/12/10 11:07:17;;;;;;;;;;;18.80;38.40;;;;;;5084536;28;20471;-63
2022/12/10 11:09:44;;;;;;;;;;;18.80;38.40;;;;;;5086613;28;19943;-63
2022/12/10 11:12:21;;;;;;;;;;;18.80;38.50;;;;;;5085771;28;19963;-64
2022/12/10 11:14:48;;;;;;;;;;;18.80;38.40;;;;;;5081886;28;19924;-64
2022/12/10 11:17:18;;;;;;;;;;;18.80;38.50;;;;;;5085762;28;19930;-64
2022/12/10 11:19:45;;;;;;;;;;;18.80;38.50;;;;;;5083498;28;19954;-64
2022/12/10 11:22:17;;;;;;;;;;;18.80;38.50;;;;;;5117972;27;19963;-63
2022/12/10 11:24:44;;;;;;;;;;;18.80;38.50;;;;;;5082049;28;20023;-63
2022/12/10 11:27:13;;;;;;;;;;;18.80;38.50;;;;;;5084749;28;19924;-64
2022/12/10 11:29:43;;;;;;;;;;;18.80;38.50;;;;;;5110169;27;19971;-66
2022/12/10 11:32:28;;;;;;;;;;;18.80;38.60;;;;;;5081730;28;19921;-64
2022/12/10 11:34:59;;;;;;;;;;;18.80;38.60;;;;;;5105772;28;19932;-64
2022/12/10 11:37:30;;;;;;;;;;;18.80;38.60;;;;;;5084569;28;19920;-64
2022/12/10 11:40:09;;;;;;;;;;;18.80;38.60;;;;;;5085666;28;19921;-64
2022/12/10 11:42:38;;;;;;;;;;;18.80;38.60;;;;;;5085808;28;20387;-66
2022/12/10 11:45:07;;;;;;;;;;;18.80;38.70;;;;;;5084424;28;19925;-70
2022/12/10 11:47:38;;;;;;;;;;;18.80;38.70;;;;;;5082125;28;19924;-65
2022/12/10 11:50:10;;;;;;;;;;;18.80;38.70;;;;;;5083308;28;19997;-69
2022/12/10 11:52:41;;;;;;;;;;;18.90;38.90;;;;;;5084962;28;19969;-64
2022/12/10 11:55:09;;;;;;;;;;;18.90;38.90;;;;;;5079939;28;19920;-69
2022/12/10 11:57:38;;;;;;;;;;;18.90;38.90;;;;;;5085485;28;19920;-64
2022/12/10 12:00:13;;;;;;;;;;;18.90;38.90;;;;;;5083489;28;19931;-65
2022/12/10 12:02:46;;;;;;;;;;;18.90;39.00;;;;;;5085346;28;19983;-65
2022/12/10 12:05:17;;;;;;;;;;;18.90;39.00;;;;;;5082222;28;19924;-65
2022/12/10 12:07:46;;;;;;;;;;;18.90;39.00;;;;;;5083393;28;19920;-65
2022/12/10 12:10:31;;;;;;;;;;;19.00;39.10;;;;;;5106021;27;19932;-69
2022/12/10 12:12:58;;;;;;;;;;;19.00;39.10;;;;;;5084756;28;19924;-66
2022/12/10 12:15:26;;;;;;;;;;;19.00;39.20;;;;;;5074632;28;19928;-66
2022/12/10 12:17:53;;;;;;;;;;;19.00;39.20;;;;;;5071049;28;19974;-70
2022/12/10 12:20:21;;;;;;;;;;;19.00;39.20;;;;;;5091574;28;19921;-67
2022/12/10 12:22:50;;;;;;;;;;;19.00;39.20;;;;;;5071024;28;19924;-67
2022/12/10 12:25:17;;;;;;;;;;;19.00;39.20;;;;;;5069888;28;19928;-68
2022/12/10 12:27:46;;;;;;;;;;;19.00;39.20;;;;;;5071301;28;19921;-65
2022/12/10 12:30:15;;;;;;;;;;;19.00;39.20;;;;;;5069224;28;19970;-66
2022/12/10 12:32:48;;;;;;;;;;;19.00;39.20;;;;;;5087072;28;19921;-65
2022/12/10 12:35:15;;;;;;;;;;;19.00;39.20;;;;;;5051147;28;19920;-66
2022/12/10 12:37:43;;;;;;;;;;;19.00;39.20;;;;;;5063368;28;19921;-65
2022/12/10 12:40:13;;;;;;;;;;;19.00;39.20;;;;;;5074015;28;19928;-66
2022/12/10 12:42:41;;;;;;;;;;;19.00;39.20;;;;;;5102479;28;19921;-66
2022/12/10 12:45:10;;;;;;;;;;;19.00;39.30;;;;;;5071454;28;19928;-65
2022/12/10 12:47:39;;;;;;;;;;;18.90;39.20;;;;;;5071718;28;19932;-64
2022/12/10 12:50:08;;;;;;;;;;;19.00;39.30;;;;;;5094378;28;19924;-66
2022/12/10 12:52:37;;;;;;;;;;;18.90;39.20;;;;;;5068839;28;19932;-70
2022/12/10 12:55:05;;;;;;;;;;;18.90;39.20;;;;;;5068741;28;19979;-65
2022/12/10 12:57:34;;;;;;;;;;;18.90;39.10;;;;;;5071158;28;19920;-70
2022/12/10 13:00:02;;;;;;;;;;;19.00;39.30;;;;;;5068825;28;19925;-64
2022/12/10 13:02:47;;;;;;;;;;;19.00;39.30;;;;;;5071824;28;19921;-66
2022/12/10 13:05:14;;;;;;;;;;;18.90;39.20;;;;;;5070144;28;19921;-65
2022/12/10 13:07:41;;;;;;;;;;;19.00;39.30;;;;;;5072537;28;20299;-65
2022/12/10 13:10:19;;;;;;;;;;;18.90;39.20;;;;;;5060742;28;19979;-68
2022/12/10 13:12:48;;;;;;;;;;;19.00;39.30;;;;;;5072166;28;19993;-66
2022/12/10 13:15:17;;;;;;;;;;;18.90;39.20;;;;;;5070905;28;19920;-66
2022/12/10 13:17:59;;;;;;;;;;;18.90;39.20;;;;;;5072709;28;19928;-65
2022/12/10 13:20:29;;;;;;;;;;;18.90;39.30;;;;;;5084565;28;19971;-68
2022/12/10 13:22:56;;;;;;;;;;;18.90;39.20;;;;;;5069378;28;19947;-65
2022/12/10 13:25:37;;;;;;;;;;;19.00;39.30;;;;;;5068658;28;20416;-69
2022/12/10 13:28:17;;;;;;;;;;;19.00;39.30;;;;;;5067072;28;20485;-65
2022/12/10 13:30:44;;;;;;;;;;;18.90;39.20;;;;;;5069034;28;20004;-65
2022/12/10 13:33:15;;;;;;;;;;;19.00;39.30;;;;;;5071479;28;19924;-65
2022/12/10 13:35:46;;;;;;;;;;;19.00;39.30;;;;;;5069760;28;19974;-68
2022/12/10 13:38:19;;;;;;;;;;;18.90;39.30;;;;;;5069183;28;19920;-64
2022/12/10 13:46:22;;;;;;;;;;;19.00;39.30;;;;;;5068562;28;19928;-65
2022/12/10 13:48:49;;;;;;;;;;;19.00;39.30;;;;;;5068769;28;19974;-69
2022/12/10 13:51:31;;;;;;;;;;;19.00;39.30;;;;;;5068612;28;20026;-65
2022/12/10 13:54:19;;;;;;;;;;;18.90;39.30;;;;;;5056150;28;19920;-73
2022/12/10 13:56:46;;;;;;;;;;;19.00;39.30;;;;;;5061548;28;19928;-67
2022/12/10 13:59:17;;;;;;;;;;;19.00;39.30;;;;;;5068465;28;19920;-64
2022/12/10 14:01:46;;;;;;;;;;;19.00;39.30;;;;;;5067959;28;19920;-67
2022/12/10 14:04:26;;;;;;;;;;;19.00;39.40;;;;;;5069288;28;19927;-65
2022/12/10 14:06:53;;;;;;;;;;;19.00;39.30;;;;;;5069618;28;19921;-65
2022/12/10 14:09:20;;;;;;;;;;;19.00;39.40;;;;;;5069540;28;20496;-65
2022/12/10 14:11:48;;;;;;;;;;;19.00;39.40;;;;;;5068705;28;19932;-64
2022/12/10 14:14:16;;;;;;;;;;;19.00;39.40;;;;;;5071552;28;19921;-64
2022/12/10 14:16:44;;;;;;;;;;;19.00;39.50;;;;;;5062886;28;20031;-67
2022/12/10 14:19:12;;;;;;;;;;;19.00;39.50;;;;;;5074584;28;19924;-66
2022/12/10 14:21:40;;;;;;;;;;;18.90;39.00;;;;;;5066851;28;19932;-67
2022/12/10 14:24:14;;;;;;;;;;;18.90;38.40;;;;;;5068914;28;20022;-66
2022/12/10 14:26:41;;;;;;;;;;;18.90;37.90;;;;;;5072055;28;19931;-67
2022/12/10 14:29:17;;;;;;;;;;;18.90;37.40;;;;;;5075042;28;19924;-66
2022/12/10 14:31:47;;;;;;;;;;;18.90;36.90;;;;;;5067881;28;19921;-68
2022/12/10 14:34:15;;;;;;;;;;;18.80;36.50;;;;;;5069500;28;20278;-67
2022/12/10 14:36:45;;;;;;;;;;;18.80;36.40;;;;;;5069255;28;19924;-64
2022/12/10 14:39:12;;;;;;;;;;;18.80;36.40;;;;;;5066913;28;20022;-64